Time;durP1;ratioP1;P1;durP2;ratioP2;P2;SDS_P1;SDS_P2;PMS_P1;PMS_P2;Temp;Humidity;BMP_temperature;BMP_pressure;BME280_temperature;BME280_humidity;BME280_pressure;Samples;Min_cycle;Max_cycle;Signal;HPM_P1;HPM_P2
2023/05/05 00:00:39;;;;;;;6.30;4.38;;;;;;;12.01;82.40;95404.53;5041827;23;20341;-67
2023/05/05 00:03:06;;;;;;;5.70;5.30;;;;;;;11.93;82.42;95401.38;5010111;28;20318;-66
2023/05/05 00:05:32;;;;;;;5.78;5.10;;;;;;;11.82;82.46;95408.56;5010389;28;20685;-66
2023/05/05 00:07:59;;;;;;;5.78;5.28;;;;;;;11.74;82.65;95407.94;5011912;28;20237;-66
2023/05/05 00:10:27;;;;;;;5.63;5.18;;;;;;;11.73;83.20;95407.13;5010110;28;20694;-67
2023/05/05 00:12:54;;;;;;;5.88;4.95;;;;;;;11.72;83.37;95405.44;5009478;28;20613;-64
2023/05/05 00:15:20;;;;;;;6.07;5.50;;;;;;;11.69;83.86;95400.44;5010333;28;20806;-68
2023/05/05 00:17:47;;;;;;;5.80;5.40;;;;;;;11.64;83.67;95401.47;5008478;28;20753;-67
2023/05/05 00:20:14;;;;;;;5.85;5.25;;;;;;;11.60;84.16;95400.75;5010446;28;20212;-66
2023/05/05 00:22:40;;;;;;;5.40;4.90;;;;;;;11.58;83.96;95403.34;5013103;28;20326;-67
2023/05/05 00:25:08;;;;;;;5.55;5.07;;;;;;;11.59;83.85;95399.94;5006607;28;20203;-67
2023/05/05 00:27:36;;;;;;;5.50;4.90;;;;;;;11.58;83.92;95397.44;5008324;28;20728;-67
2023/05/05 00:30:03;;;;;;;6.03;5.30;;;;;;;11.48;84.24;95396.88;5004831;28;20358;-65
2023/05/05 00:32:30;;;;;;;6.63;5.65;;;;;;;11.52;83.91;95398.47;5011356;28;20230;-69
2023/05/05 00:34:56;;;;;;;6.13;5.72;;;;;;;11.48;84.44;95401.97;5009061;28;20707;-67
2023/05/05 00:37:23;;;;;;;7.18;5.40;;;;;;;11.37;84.60;95404.03;5010216;28;20747;-68
2023/05/05 00:39:50;;;;;;;5.43;5.03;;;;;;;11.36;84.79;95399.84;5010695;28;20302;-66
2023/05/05 00:42:16;;;;;;;5.43;5.03;;;;;;;11.30;84.75;95407.66;5013717;28;20284;-68
2023/05/05 00:44:44;;;;;;;5.13;4.63;;;;;;;11.27;85.11;95409.44;5010987;28;20302;-67
2023/05/05 00:47:12;;;;;;;5.70;5.20;;;;;;;11.24;85.09;95407.81;5009713;28;20218;-68
2023/05/05 00:49:39;;;;;;;5.70;5.30;;;;;;;11.24;85.23;95407.81;5009872;28;20627;-68
2023/05/05 00:52:07;;;;;;;5.85;5.20;;;;;;;11.34;85.18;95403.28;5005765;28;20229;-68
2023/05/05 00:54:34;;;;;;;6.10;5.63;;;;;;;11.23;85.34;95412.09;5004084;28;20235;-68
2023/05/05 00:57:01;;;;;;;7.38;5.88;;;;;;;11.17;85.58;95402.09;5006208;28;20248;-67
2023/05/05 00:59:29;;;;;;;5.88;5.47;;;;;;;11.21;85.47;95403.66;5002770;28;20218;-67
2023/05/05 01:01:57;;;;;;;5.78;5.38;;;;;;;11.31;84.96;95403.38;5003799;28;20235;-68
2023/05/05 01:04:25;;;;;;;6.88;6.18;;;;;;;11.30;84.74;95396.63;5005718;28;20298;-68
2023/05/05 01:07:00;;;;;;;7.22;6.50;;;;;;;11.28;84.38;95389.03;5003761;28;20235;-68
2023/05/05 01:09:34;;;;;;;8.82;7.72;;;;;;;11.45;84.25;95399.53;5003763;28;20206;-68
2023/05/05 01:12:10;;;;;;;6.22;5.82;;;;;;;11.41;84.55;95395.41;5003374;28;20218;-67
2023/05/05 01:14:40;;;;;;;7.05;6.45;;;;;;;11.44;84.40;95390.22;5004066;28;20303;-68
2023/05/05 01:17:15;;;;;;;6.53;6.10;;;;;;;11.40;84.24;95393.75;5003884;28;20918;-68
2023/05/05 01:20:02;;;;;;;7.00;6.47;;;;;;;11.36;84.46;95399.84;5004184;28;20823;-68
2023/05/05 01:22:39;;;;;;;6.80;6.30;;;;;;;11.33;84.30;95401.63;5004209;28;20293;-68
2023/05/05 01:25:32;;;;;;;7.40;6.70;;;;;;;11.29;84.60;95400.06;5002772;28;20262;-67
2023/05/05 01:28:11;;;;;;;7.60;6.90;;;;;;;11.23;84.99;95401.06;5000848;28;20218;-67
2023/05/05 01:31:13;;;;;;;8.00;6.70;;;;;;;11.26;84.70;95393.34;5002265;28;20202;-68
2023/05/05 01:33:47;;;;;;;7.70;7.03;;;;;;;11.18;84.98;95392.75;5003630;28;20366;-68
2023/05/05 01:36:21;;;;;;;8.05;7.45;;;;;;;11.12;85.34;95388.69;5005476;28;20336;-68
2023/05/05 01:38:53;;;;;;;7.38;6.60;;;;;;;11.11;85.27;95396.38;5002156;28;20670;-69
2023/05/05 01:41:25;;;;;;;8.25;7.50;;;;;;;11.07;85.44;95385.44;5004972;28;20260;-67
2023/05/05 01:43:54;;;;;;;7.75;7.00;;;;;;;11.16;85.39;95384.31;5004017;28;20357;-68
2023/05/05 01:46:23;;;;;;;7.32;5.88;;;;;;;11.23;84.92;95380.72;5003285;28;20308;-69
2023/05/05 01:48:53;;;;;;;7.75;6.25;;;;;;;11.18;85.05;95377.47;5005228;28;20204;-69
2023/05/05 01:51:23;;;;;;;9.02;7.05;;;;;;;11.18;85.09;95377.47;5003619;28;20358;-67
2023/05/05 01:53:53;;;;;;;7.00;6.50;;;;;;;11.10;85.42;95375.19;5003404;28;20326;-67
2023/05/05 01:56:22;;;;;;;7.07;6.45;;;;;;;11.10;85.55;95371.81;5003041;28;20212;-69
2023/05/05 01:58:51;;;;;;;7.93;7.32;;;;;;;11.00;85.58;95372.97;5004495;28;20299;-68
2023/05/05 02:01:19;;;;;;;8.15;5.82;;;;;;;10.98;85.68;95370.47;5001061;28;20986;-68
2023/05/05 02:03:47;;;;;;;7.18;6.57;;;;;;;10.90;85.89;95373.22;5003419;28;20195;-68
2023/05/05 02:06:18;;;;;;;7.05;6.50;;;;;;;10.94;86.01;95371.44;5000448;28;20265;-68
2023/05/05 02:08:46;;;;;;;7.53;6.85;;;;;;;10.95;85.99;95374.81;5003514;28;20227;-68
2023/05/05 02:11:12;;;;;;;6.78;6.18;;;;;;;10.98;85.96;95375.56;5002343;28;20821;-67
2023/05/05 02:13:41;;;;;;;8.38;6.75;;;;;;;11.04;86.00;95383.00;5002005;28;20334;-68
2023/05/05 02:16:09;;;;;;;6.70;6.00;;;;;;;11.11;85.43;95371.78;5004204;28;20341;-67
2023/05/05 02:18:37;;;;;;;10.20;6.63;;;;;;;11.18;85.18;95369.84;5005482;28;20291;-68
2023/05/05 02:21:05;;;;;;;7.05;5.82;;;;;;;11.20;84.84;95370.63;5003889;28;20690;-67
2023/05/05 02:23:33;;;;;;;6.55;6.05;;;;;;;11.35;84.32;95365.09;5001900;28;20337;-67
2023/05/05 02:26:05;;;;;;;5.70;5.20;;;;;;;11.33;84.47;95364.31;5001094;28;20341;-68
2023/05/05 02:28:38;;;;;;;6.95;6.25;;;;;;;11.35;84.45;95370.19;5004775;28;20768;-68
2023/05/05 02:31:07;;;;;;;9.90;6.60;;;;;;;11.39;84.22;95370.88;5002663;28;20235;-68
2023/05/05 02:33:35;;;;;;;6.95;6.25;;;;;;;11.44;83.79;95385.13;5004050;28;20497;-68
2023/05/05 02:36:10;;;;;;;10.35;6.15;;;;;;;11.48;83.70;95368.88;5004098;28;20298;-66
2023/05/05 02:38:41;;;;;;;5.90;5.32;;;;;;;11.55;82.69;95372.06;5002093;28;20984;-67
2023/05/05 02:41:11;;;;;;;5.80;5.40;;;;;;;11.44;82.52;95372.41;5002197;28;20920;-68
2023/05/05 02:43:40;;;;;;;7.15;5.18;;;;;;;11.47;82.25;95368.94;5000703;28;20715;-67
2023/05/05 02:46:08;;;;;;;5.85;5.35;;;;;;;11.42;82.18;95376.72;5002652;28;20281;-67
2023/05/05 02:48:34;;;;;;;6.00;5.50;;;;;;;11.57;81.46;95368.59;5000658;28;20215;-67
2023/05/05 02:51:01;;;;;;;5.20;4.80;;;;;;;11.57;81.33;95376.25;5001167;28;20402;-69
2023/05/05 02:53:29;;;;;;;5.15;4.85;;;;;;;11.63;80.92;95369.28;5002539;28;21438;-67
2023/05/05 02:56:07;;;;;;;5.75;5.35;;;;;;;11.58;81.12;95365.19;5001281;28;20289;-67
2023/05/05 02:58:45;;;;;;;5.38;4.82;;;;;;;11.59;81.03;95366.84;5003944;28;21250;-67
2023/05/05 03:01:19;;;;;;;5.60;5.22;;;;;;;11.52;81.21;95367.91;5005275;28;20242;-66
2023/05/05 03:03:54;;;;;;;5.50;5.10;;;;;;;11.66;80.94;95369.16;5006730;28;21448;-66
2023/05/05 03:06:26;;;;;;;5.05;4.63;;;;;;;11.71;79.79;95378.31;5008208;28;20670;-68
2023/05/05 03:08:58;;;;;;;6.13;4.65;;;;;;;11.70;80.00;95376.66;5007676;28;20203;-68
2023/05/05 03:11:32;;;;;;;6.45;4.88;;;;;;;11.83;79.45;95379.69;5005935;28;20979;-67
2023/05/05 03:14:07;;;;;;;4.78;4.43;;;;;;;11.79;79.13;95367.94;5006723;28;20313;-67
2023/05/05 03:16:35;;;;;;;5.38;4.85;;;;;;;11.78;79.20;95373.91;5006268;28;20216;-65
2023/05/05 03:19:03;;;;;;;5.85;4.57;;;;;;;11.79;79.23;95371.31;5008188;28;20207;-68
2023/05/05 03:21:31;;;;;;;5.05;4.65;;;;;;;11.84;79.52;95368.59;5006682;28;20827;-67
2023/05/05 03:23:58;;;;;;;8.00;4.93;;;;;;;11.78;79.50;95371.34;5006379;28;20282;-67
2023/05/05 03:26:26;;;;;;;5.60;5.10;;;;;;;11.72;79.64;95363.88;5007535;28;20291;-70
2023/05/05 03:28:53;;;;;;;5.65;5.25;;;;;;;11.87;79.53;95369.34;5007118;28;20207;-66
2023/05/05 03:31:20;;;;;;;5.95;5.35;;;;;;;11.91;79.36;95370.88;5005386;28;20540;-65
2023/05/05 03:33:47;;;;;;;5.82;5.25;;;;;;;11.91;79.99;95375.13;5006256;28;20317;-67
2023/05/05 03:36:13;;;;;;;6.75;6.15;;;;;;;11.90;80.16;95376.00;5005754;28;20648;-67
2023/05/05 03:38:40;;;;;;;6.47;5.88;;;;;;;11.92;80.34;95364.06;5005265;28;20257;-66
2023/05/05 03:41:07;;;;;;;7.53;5.90;;;;;;;11.87;80.61;95373.59;5006334;28;20231;-67
2023/05/05 03:43:35;;;;;;;6.63;5.95;;;;;;;11.94;80.35;95369.94;5004023;28;20286;-67
2023/05/05 03:46:02;;;;;;;6.57;6.07;;;;;;;12.04;79.75;95358.56;5006481;28;20684;-68
2023/05/05 03:48:28;;;;;;;6.70;6.10;;;;;;;12.06;79.37;95369.53;5006377;28;20257;-68
2023/05/05 03:50:55;;;;;;;7.07;6.47;;;;;;;12.10;79.38;95365.19;5007003;28;20686;-67
2023/05/05 03:53:22;;;;;;;6.47;5.88;;;;;;;12.14;79.36;95371.81;5005091;28;20240;-67
2023/05/05 03:55:48;;;;;;;9.95;6.88;;;;;;;12.17;79.26;95377.63;5005779;28;21045;-67
2023/05/05 03:58:16;;;;;;;7.32;6.57;;;;;;;12.21;79.48;95356.25;5007352;28;20276;-67
2023/05/05 04:00:44;;;;;;;8.00;7.18;;;;;;;12.54;79.13;95378.88;5006919;28;20250;-67
2023/05/05 04:03:11;;;;;;;15.38;13.27;;;;;;;12.64;78.01;95362.34;5006809;28;20289;-68
2023/05/05 04:05:37;;;;;;;12.48;10.07;;;;;;;12.98;77.64;95381.50;5006572;28;20291;-68
2023/05/05 04:08:05;;;;;;;8.30;7.53;;;;;;;13.21;76.62;95389.16;5004849;28;20314;-67
2023/05/05 04:10:31;;;;;;;10.38;6.68;;;;;;;13.31;75.59;95385.38;5005714;28;20290;-68
2023/05/05 04:12:58;;;;;;;7.72;7.07;;;;;;;13.30;74.86;95391.34;5007383;28;20350;-69
2023/05/05 04:15:25;;;;;;;7.20;6.50;;;;;;;13.27;74.96;95399.13;5006495;28;20317;-68
2023/05/05 04:17:53;;;;;;;8.75;6.45;;;;;;;13.17;75.56;95397.81;5006749;28;20204;-67
2023/05/05 04:20:20;;;;;;;10.15;7.63;;;;;;;13.09;75.71;95400.63;5004780;28;20298;-68
2023/05/05 04:22:47;;;;;;;19.80;11.85;;;;;;;13.09;75.87;95390.44;5005464;28;20212;-68
2023/05/05 04:25:14;;;;;;;22.05;13.45;;;;;;;13.07;76.07;95399.88;5003747;28;20203;-68
2023/05/05 04:27:40;;;;;;;11.73;10.38;;;;;;;13.14;75.40;95395.34;5006311;28;20294;-68
2023/05/05 04:30:09;;;;;;;10.57;9.43;;;;;;;13.21;75.34;95401.91;5008205;28;20751;-68
2023/05/05 04:32:36;;;;;;;7.93;6.70;;;;;;;13.25;74.82;95395.81;5004478;28;20879;-68
2023/05/05 04:35:04;;;;;;;8.80;7.95;;;;;;;13.22;74.72;95406.13;5003246;28;20354;-68
2023/05/05 04:37:31;;;;;;;7.35;6.70;;;;;;;13.17;74.86;95400.34;5003209;28;20768;-65
2023/05/05 04:39:58;;;;;;;8.02;7.28;;;;;;;13.14;75.16;95387.69;5002423;28;20301;-67
2023/05/05 04:42:24;;;;;;;11.63;7.68;;;;;;;13.33;74.09;95401.44;5002397;28;20207;-69
2023/05/05 04:44:51;;;;;;;9.88;8.70;;;;;;;13.26;74.72;95400.84;5002609;28;20307;-67
2023/05/05 04:47:18;;;;;;;17.38;13.30;;;;;;;13.38;74.48;95401.25;5002169;28;20313;-68
2023/05/05 04:49:44;;;;;;;12.55;11.25;;;;;;;13.48;73.65;95403.38;5004832;28;20295;-68
2023/05/05 04:52:13;;;;;;;15.35;9.32;;;;;;;13.63;73.88;95396.84;5002787;28;20235;-68
2023/05/05 04:54:40;;;;;;;9.95;8.02;;;;;;;13.79;72.77;95395.34;5005527;28;20304;-68
2023/05/05 04:57:07;;;;;;;9.75;6.38;;;;;;;13.76;72.19;95392.91;5004997;28;20295;-68
2023/05/05 04:59:35;;;;;;;7.20;6.50;;;;;;;13.82;71.72;95396.94;5008676;28;20207;-67
2023/05/05 05:02:01;;;;;;;6.95;6.25;;;;;;;14.02;71.11;95404.63;5006329;28;20324;-70
2023/05/05 05:04:28;;;;;;;6.68;6.07;;;;;;;14.17;69.88;95406.50;5005702;28;20206;-66
2023/05/05 05:06:55;;;;;;;6.63;5.82;;;;;;;14.19;70.16;95409.84;5005319;28;20805;-68
2023/05/05 05:09:23;;;;;;;8.45;6.32;;;;;;;14.31;70.08;95400.84;5007566;28;20204;-68
2023/05/05 05:11:49;;;;;;;7.32;6.68;;;;;;;14.53;69.35;95398.22;5003518;28;20672;-67
2023/05/05 05:14:16;;;;;;;7.72;7.05;;;;;;;14.44;69.44;95412.22;5004932;28;20321;-67
2023/05/05 05:16:43;;;;;;;8.45;7.65;;;;;;;14.52;69.27;95414.44;5005335;28;20295;-68
2023/05/05 05:19:09;;;;;;;6.70;6.15;;;;;;;14.64;69.53;95421.56;5005887;28;20215;-68
2023/05/05 05:21:36;;;;;;;7.22;6.57;;;;;;;14.86;68.59;95424.84;5003446;28;20212;-67
2023/05/05 05:24:03;;;;;;;6.57;6.07;;;;;;;14.95;68.22;95424.44;5002845;28;20290;-68
2023/05/05 05:26:31;;;;;;;6.72;6.10;;;;;;;15.31;67.37;95426.25;5002394;28;20294;-68
2023/05/05 05:28:57;;;;;;;13.70;8.20;;;;;;;15.67;66.44;95417.75;5004592;28;21253;-68
2023/05/05 05:31:24;;;;;;;10.27;9.18;;;;;;;16.04;64.83;95421.94;5005183;28;20919;-67
2023/05/05 05:33:51;;;;;;;7.75;6.95;;;;;;;16.26;63.65;95423.38;5003335;28;20298;-68
2023/05/05 05:36:17;;;;;;;7.90;7.20;;;;;;;16.36;63.14;95422.88;5005139;28;20364;-67
2023/05/05 05:38:44;;;;;;;12.77;7.35;;;;;;;16.21;63.25;95430.44;5006224;28;20204;-67
2023/05/05 05:41:11;;;;;;;7.75;7.15;;;;;;;16.03;63.05;95420.28;5005600;28;20327;-69
2023/05/05 05:43:40;;;;;;;8.93;6.07;;;;;;;15.72;64.26;95415.81;5004707;28;20214;-68
2023/05/05 05:46:06;;;;;;;6.95;6.32;;;;;;;15.50;64.56;95423.66;5007547;28;21745;-67
2023/05/05 05:48:33;;;;;;;8.10;7.35;;;;;;;15.38;65.03;95422.47;5002118;28;20298;-69
2023/05/05 05:51:01;;;;;;;9.60;7.32;;;;;;;15.32;65.40;95427.91;5002779;28;20263;-69
2023/05/05 05:53:28;;;;;;;11.13;7.40;;;;;;;15.29;65.97;95422.94;5005972;28;20915;-69
2023/05/05 05:55:54;;;;;;;8.40;7.57;;;;;;;15.44;65.33;95427.31;5002670;28;20353;-68
2023/05/05 05:58:21;;;;;;;7.38;6.68;;;;;;;15.54;65.09;95423.44;5002206;28;20303;-68
2023/05/05 06:00:49;;;;;;;8.68;7.28;;;;;;;15.97;63.96;95427.38;5003336;28;20672;-68
2023/05/05 06:03:16;;;;;;;7.43;6.68;;;;;;;16.31;62.54;95426.53;5002917;28;20245;-69
2023/05/05 06:05:42;;;;;;;9.00;6.88;;;;;;;16.56;61.80;95430.44;5003597;28;20235;-68
2023/05/05 06:08:09;;;;;;;7.32;6.63;;;;;;;16.85;61.25;95427.19;5002895;28;20230;-70
2023/05/05 06:10:36;;;;;;;16.10;9.10;;;;;;;17.24;60.10;95428.56;5003540;28;20256;-69
2023/05/05 06:13:02;;;;;;;9.10;7.45;;;;;;;17.65;58.86;95424.59;5004112;28;20286;-70
2023/05/05 06:15:29;;;;;;;9.23;7.00;;;;;;;18.50;56.78;95425.75;5003292;28;20226;-69
2023/05/05 06:17:57;;;;;;;8.43;6.30;;;;;;;19.52;54.09;95420.41;5003783;28;20231;-69
2023/05/05 06:20:24;;;;;;;5.90;5.40;;;;;;;20.50;51.62;95416.66;5003379;28;20326;-67
2023/05/05 06:22:50;;;;;;;6.22;5.68;;;;;;;21.02;48.99;95422.50;5004840;28;20238;-68
2023/05/05 06:25:17;;;;;;;5.82;5.45;;;;;;;21.13;48.65;95418.34;5003066;28;20302;-68
2023/05/05 06:27:44;;;;;;;6.18;5.57;;;;;;;20.81;48.76;95426.53;5003953;28;20302;-68
2023/05/05 06:30:11;;;;;;;6.15;5.55;;;;;;;20.77;49.40;95432.88;5004675;28;20234;-68
2023/05/05 06:32:38;;;;;;;5.38;4.93;;;;;;;20.82;49.48;95430.78;5002788;28;21539;-68
2023/05/05 06:35:07;;;;;;;6.50;4.53;;;;;;;21.16;48.45;95420.72;5004588;28;20327;-69
2023/05/05 06:37:34;;;;;;;4.80;4.50;;;;;;;22.19;46.30;95415.91;5004096;28;21804;-69
2023/05/05 06:40:01;;;;;;;6.50;5.05;;;;;;;23.27;43.93;95414.63;5002555;28;20509;-69
2023/05/05 06:42:29;;;;;;;4.90;4.60;;;;;;;23.85;42.10;95415.22;5001866;28;20230;-69
2023/05/05 06:44:56;;;;;;;5.03;4.35;;;;;;;24.58;39.60;95414.44;5004805;28;20265;-69
2023/05/05 06:47:23;;;;;;;4.93;3.55;;;;;;;25.93;37.15;95410.56;5004772;28;20286;-69
2023/05/05 06:49:49;;;;;;;2.72;2.60;;;;;;;27.38;34.21;95397.22;5003644;28;20253;-69
2023/05/05 06:52:17;;;;;;;3.85;3.10;;;;;;;27.67;33.69;95399.72;5008436;28;20798;-70
2023/05/05 06:54:44;;;;;;;6.10;3.60;;;;;;;27.29;33.90;95395.47;5006958;28;20326;-70
2023/05/05 06:57:11;;;;;;;4.55;2.97;;;;;;;26.82;33.76;95403.34;5006559;28;20276;-70
2023/05/05 06:59:37;;;;;;;2.70;2.60;;;;;;;26.01;35.82;95402.03;5006631;28;20309;-70
2023/05/05 07:02:04;;;;;;;3.95;2.30;;;;;;;24.11;36.90;95403.56;5004370;28;20889;-70
2023/05/05 07:04:31;;;;;;;2.67;2.47;;;;;;;22.94;40.28;95399.94;5004095;28;20211;-69
2023/05/05 07:06:58;;;;;;;2.30;2.20;;;;;;;23.42;40.02;95403.06;5002992;28;20290;-69
2023/05/05 07:09:26;;;;;;;2.63;2.40;;;;;;;24.70;37.84;95398.66;5003088;28;20227;-70
2023/05/05 07:11:53;;;;;;;2.97;2.58;;;;;;;24.88;36.84;95391.06;5002976;28;20207;-69
2023/05/05 07:14:19;;;;;;;2.72;2.63;;;;;;;26.99;34.37;95389.56;5004295;28;20321;-70
2023/05/05 07:16:46;;;;;;;7.00;2.63;;;;;;;31.56;28.54;95384.34;5008442;28;20209;-68
2023/05/05 07:19:13;;;;;;;2.58;2.38;;;;;;;33.75;24.64;95382.34;5005545;28;20326;-70
2023/05/05 07:21:39;;;;;;;3.03;2.78;;;;;;;33.79;23.65;95386.28;5003499;28;20207;-70
2023/05/05 07:24:07;;;;;;;2.95;2.75;;;;;;;33.69;23.52;95387.53;5003357;28;20692;-69
2023/05/05 07:26:35;;;;;;;4.10;2.55;;;;;;;33.20;24.14;95372.31;5004413;28;20290;-71
2023/05/05 07:29:03;;;;;;;2.58;2.38;;;;;;;32.33;25.07;95371.22;5005364;28;20352;-70
2023/05/05 07:31:30;;;;;;;2.63;2.42;;;;;;;33.39;23.93;95381.53;5006171;28;20211;-69
2023/05/05 07:33:56;;;;;;;2.50;2.00;;;;;;;32.38;23.93;95385.50;5000052;28;20219;-68
2023/05/05 07:36:23;;;;;;;2.20;2.10;;;;;;;32.77;24.28;95381.88;5002209;28;20342;-68
2023/05/05 07:38:50;;;;;;;2.08;1.88;;;;;;;33.08;23.11;95387.78;4998462;28;20326;-68
2023/05/05 07:41:17;;;;;;;1.92;1.83;;;;;;;32.25;24.38;95395.78;5001833;28;20295;-69
2023/05/05 07:43:45;;;;;;;2.47;1.83;;;;;;;29.18;27.56;95390.75;5001649;28;20590;-70
2023/05/05 07:46:12;;;;;;;2.25;2.15;;;;;;;29.54;28.58;95396.63;5000540;28;20853;-69
2023/05/05 07:48:40;;;;;;;1.98;1.88;;;;;;;31.11;26.33;95391.13;5002178;28;20414;-69
2023/05/05 07:51:06;;;;;;;1.58;1.48;;;;;;;33.63;23.81;95386.50;5005075;28;20238;-70
2023/05/05 07:53:33;;;;;;;2.85;2.63;;;;;;;36.42;20.34;95386.25;5002420;28;20691;-70
2023/05/05 07:56:00;;;;;;;2.42;2.30;;;;;;;37.92;19.59;95376.53;5003707;28;20873;-71
2023/05/05 07:58:26;;;;;;;3.08;2.88;;;;;;;38.44;18.14;95384.19;5003843;28;21928;-67
2023/05/05 08:00:54;;;;;;;2.60;2.40;;;;;;;37.86;19.81;95377.41;5003888;28;20335;-69
2023/05/05 08:03:23;;;;;;;2.38;2.20;;;;;;;38.59;18.41;95383.09;5003148;28;20290;-70
2023/05/05 08:05:49;;;;;;;4.32;2.40;;;;;;;39.32;17.44;95384.03;5005312;28;20206;-70
2023/05/05 08:08:16;;;;;;;2.53;2.42;;;;;;;39.00;17.96;95380.69;5003291;28;20223;-70
2023/05/05 08:10:43;;;;;;;3.25;2.22;;;;;;;38.04;18.63;95380.16;5003667;28;20307;-68
2023/05/05 08:13:09;;;;;;;3.72;2.33;;;;;;;38.14;18.24;95385.81;5003120;28;20298;-69
2023/05/05 08:15:36;;;;;;;2.38;2.28;;;;;;;35.21;20.58;95381.78;5005291;28;20318;-70
2023/05/05 08:18:04;;;;;;;2.45;2.25;;;;;;;35.67;20.69;95382.00;4999500;28;20431;-69
2023/05/05 08:20:31;;;;;;;2.13;2.03;;;;;;;37.94;19.59;95377.16;5002323;28;20638;-70
2023/05/05 08:22:58;;;;;;;3.03;2.05;;;;;;;40.49;17.72;95357.09;5007232;28;20287;-69
2023/05/05 08:25:25;;;;;;;2.63;2.30;;;;;;;43.10;15.85;95361.59;5004475;28;20350;-69
2023/05/05 08:27:52;;;;;;;3.08;2.22;;;;;;;43.71;14.18;95361.59;5003211;28;20243;-70
2023/05/05 08:30:20;;;;;;;2.83;2.63;;;;;;;42.23;15.19;95350.59;5004987;28;20243;-71
2023/05/05 08:32:46;;;;;;;3.08;2.83;;;;;;;41.03;15.78;95348.75;5004982;28;20759;-70
2023/05/05 08:35:14;;;;;;;2.83;2.58;;;;;;;38.91;17.74;95342.09;5005121;28;20231;-69
2023/05/05 08:37:41;;;;;;;4.40;2.95;;;;;;;40.22;16.97;95349.50;5006231;28;20322;-71
2023/05/05 08:40:12;;;;;;;3.05;2.78;;;;;;;42.91;15.42;95343.41;5003276;28;20308;-72
2023/05/05 08:42:39;;;;;;;3.05;2.70;;;;;;;44.01;14.49;95343.19;5003534;28;20231;-72
2023/05/05 08:45:08;;;;;;;2.55;2.35;;;;;;;44.57;14.25;95348.22;5002127;28;20292;-69
2023/05/05 08:47:35;;;;;;;6.63;4.22;;;;;;;42.88;14.91;95355.41;5001632;28;20295;-68
2023/05/05 08:50:04;;;;;;;3.28;3.00;;;;;;;39.04;17.76;95349.16;5003755;28;20281;-68
2023/05/05 08:52:39;;;;;;;4.60;2.85;;;;;;;34.82;20.74;95350.69;5001646;28;20206;-67
2023/05/05 08:55:13;;;;;;;2.80;2.70;;;;;;;30.61;25.47;95351.19;5003681;28;20231;-65
2023/05/05 08:57:45;;;;;;;3.15;2.75;;;;;;;27.96;29.81;95357.72;5003476;28;20214;-69
2023/05/05 09:00:13;;;;;;;5.63;4.93;;;;;;;26.52;33.37;95364.44;5003280;28;20220;-67
2023/05/05 09:02:42;;;;;;;16.08;4.88;;;;;;;25.53;35.43;95358.53;5004704;28;22218;-68
2023/05/05 09:05:10;;;;;;;5.30;4.80;;;;;;;25.00;37.16;95360.59;5003688;28;20199;-69
2023/05/05 09:07:40;;;;;;;5.20;3.72;;;;;;;24.75;37.50;95359.25;5003272;28;21080;-67
2023/05/05 09:10:09;;;;;;;3.40;3.20;;;;;;;24.93;37.18;95352.50;5006165;28;20211;-67
2023/05/05 09:12:39;;;;;;;2.70;2.50;;;;;;;25.91;36.15;95349.16;5004851;28;20227;-68
2023/05/05 09:15:06;;;;;;;2.17;2.08;;;;;;;28.90;31.33;95340.41;5004701;28;20740;-67
2023/05/05 09:17:33;;;;;;;2.70;2.50;;;;;;;29.74;29.48;95337.72;5003333;28;20297;-67
2023/05/05 09:20:05;;;;;;;8.02;3.50;;;;;;;31.99;26.25;95329.56;5003296;28;20313;-65
2023/05/05 09:22:34;;;;;;;2.05;1.95;;;;;;;32.86;24.43;95345.75;5004810;28;20713;-66
2023/05/05 09:25:03;;;;;;;2.60;2.45;;;;;;;31.31;26.17;95325.06;5003642;28;20258;-67
2023/05/05 09:27:30;;;;;;;2.88;2.40;;;;;;;29.91;28.16;95337.75;5001332;28;20542;-66
2023/05/05 09:29:57;;;;;;;2.22;2.13;;;;;;;29.55;28.60;95335.41;5003930;28;20222;-66
2023/05/05 09:32:25;;;;;;;2.45;2.30;;;;;;;29.67;28.01;95341.19;5001935;28;20362;-69
2023/05/05 09:34:58;;;;;;;3.05;2.15;;;;;;;30.31;27.36;95329.91;5002639;28;20203;-65
2023/05/05 09:37:29;;;;;;;2.00;1.90;;;;;;;30.33;27.15;95327.94;5004077;28;20200;-67
2023/05/05 09:39:58;;;;;;;1.98;1.88;;;;;;;29.50;28.23;95337.69;5004354;28;20353;-65
2023/05/05 09:42:26;;;;;;;1.75;1.75;;;;;;;28.57;29.42;95333.31;5002690;28;20287;-68
2023/05/05 09:44:53;;;;;;;3.38;2.03;;;;;;;27.96;30.31;95327.19;5002368;28;20218;-67
2023/05/05 09:47:20;;;;;;;3.58;1.73;;;;;;;27.49;30.52;95329.13;5002829;28;20215;-67
2023/05/05 09:49:57;;;;;;;1.83;1.35;;;;;;;26.49;32.24;95325.63;5004613;28;20207;-65
2023/05/05 09:52:24;;;;;;;1.88;1.77;;;;;;;25.34;33.56;95335.09;5003822;28;22279;-65
2023/05/05 09:54:54;;;;;;;2.05;1.92;;;;;;;24.78;35.24;95340.78;5003948;28;20306;-66
2023/05/05 09:57:30;;;;;;;1.77;1.67;;;;;;;24.52;35.14;95331.78;5003902;28;20232;-67
2023/05/05 09:59:59;;;;;;;2.58;2.38;;;;;;;23.86;36.80;95328.63;5002362;28;20250;-67
2023/05/05 10:02:33;;;;;;;2.10;1.90;;;;;;;23.56;37.49;95322.38;5004514;28;20295;-66
2023/05/05 10:05:11;;;;;;;26.52;17.73;;;;;;;23.72;37.07;95325.41;5001914;28;20803;-67
2023/05/05 10:07:40;;;;;;;5.03;3.13;;;;;;;23.71;37.08;95320.34;5003534;28;20207;-66
2023/05/05 10:10:11;;;;;;;14.90;2.25;;;;;;;23.46;38.27;95326.66;5005942;28;20253;-65
2023/05/05 10:12:39;;;;;;;2.17;2.08;;;;;;;23.34;37.46;95325.03;5003661;28;20216;-67
2023/05/05 10:15:07;;;;;;;2.05;1.95;;;;;;;23.35;38.62;95319.72;5005930;28;20300;-68
2023/05/05 10:17:37;;;;;;;2.55;2.40;;;;;;;23.29;38.11;95314.19;5003871;28;20350;-69
2023/05/05 10:20:04;;;;;;;2.00;1.90;;;;;;;23.38;39.28;95323.84;5005106;28;20293;-66
2023/05/05 10:22:34;;;;;;;2.33;2.22;;;;;;;23.51;37.39;95314.09;5001876;28;20799;-67
2023/05/05 10:25:04;;;;;;;2.33;2.22;;;;;;;23.18;37.83;95307.28;5001175;28;20231;-66
2023/05/05 10:27:39;;;;;;;2.00;1.90;;;;;;;23.02;38.54;95312.81;5000969;28;20204;-68
2023/05/05 10:30:16;;;;;;;1.77;1.58;;;;;;;22.78;38.85;95304.38;5002375;28;20211;-69
2023/05/05 10:32:46;;;;;;;2.45;2.25;;;;;;;22.58;39.53;95305.91;5001735;28;20249;-66
2023/05/05 10:35:16;;;;;;;2.17;2.08;;;;;;;22.20;40.89;95302.84;5003309;28;20298;-68
2023/05/05 10:37:44;;;;;;;2.65;2.45;;;;;;;22.11;40.71;95311.28;5004933;28;20601;-67
2023/05/05 10:40:13;;;;;;;2.22;2.03;;;;;;;22.05;41.08;95309.97;5001454;28;20295;-66
2023/05/05 10:42:40;;;;;;;2.83;2.63;;;;;;;21.97;41.25;95279.47;5001796;28;20257;-66
2023/05/05 10:45:09;;;;;;;2.85;2.00;;;;;;;22.57;40.43;95301.66;5002862;28;20286;-66
2023/05/05 10:47:39;;;;;;;4.63;1.90;;;;;;;22.86;39.37;95302.03;5003864;28;20305;-66
2023/05/05 10:50:11;;;;;;;3.78;1.98;;;;;;;22.81;39.25;95298.97;5003516;28;20235;-65
2023/05/05 10:52:46;;;;;;;2.00;1.90;;;;;;;22.78;39.34;95304.38;5001794;28;20346;-66
2023/05/05 10:55:17;;;;;;;1.90;1.80;;;;;;;23.24;39.28;95309.38;5003689;28;20207;-67
2023/05/05 10:57:45;;;;;;;2.95;2.17;;;;;;;23.47;38.47;95302.34;5002169;28;20313;-66
2023/05/05 11:00:50;;;;;;;2.33;2.20;;;;;;;22.11;40.74;95304.34;5001001;28;20729;-67
2023/05/05 11:03:22;;;;;;;2.60;2.50;;;;;;;21.63;42.63;95296.66;5002712;28;20700;-65
2023/05/05 11:06:11;;;;;;;1.98;1.88;;;;;;;21.78;42.37;95301.66;5003376;28;21061;-66
2023/05/05 11:08:39;;;;;;;1.75;1.65;;;;;;;22.03;41.73;95306.66;5001913;28;20705;-65
2023/05/05 11:11:06;;;;;;;2.00;1.90;;;;;;;22.37;41.72;95305.78;5006350;28;20333;-68
2023/05/05 11:13:33;;;;;;;2.17;2.08;;;;;;;21.98;41.58;95298.41;5004312;28;20733;-67
2023/05/05 11:16:01;;;;;;;3.58;2.00;;;;;;;21.61;42.55;95298.53;5001249;28;20617;-64
2023/05/05 11:18:36;;;;;;;2.42;1.90;;;;;;;21.16;43.89;95301.84;5003685;28;20693;-66
2023/05/05 11:21:07;;;;;;;2.20;2.00;;;;;;;20.76;45.07;95299.50;5003958;28;20261;-65
2023/05/05 11:23:34;;;;;;;2.00;1.90;;;;;;;20.46;46.22;95304.19;5007411;28;20226;-67
2023/05/05 11:26:01;;;;;;;3.10;1.33;;;;;;;20.03;46.74;95296.75;5006934;28;20200;-67
2023/05/05 11:28:29;;;;;;;1.75;1.65;;;;;;;19.81;47.18;95286.16;5006996;28;20297;-67
2023/05/05 11:31:18;;;;;;;1.85;1.80;;;;;;;19.70;47.22;95298.03;5006102;28;20273;-65
2023/05/05 11:33:45;;;;;;;1.92;1.83;;;;;;;19.25;48.09;95294.09;5009106;28;20322;-68
2023/05/05 11:36:13;;;;;;;1.45;1.45;;;;;;;19.36;49.26;95298.53;5005555;28;21799;-65
2023/05/05 11:39:07;;;;;;;2.50;2.30;;;;;;;19.14;48.60;95283.63;5004925;28;20321;-65